sensor_id;sensor_type;location;lat;lon;timestamp;temperature;humidity
13585;DHT22;6863;48.402;9.994;2023-07-28T00:02:15;15.50;99.90
13585;DHT22;6863;48.402;9.994;2023-07-28T00:04:41;15.40;99.90
13585;DHT22;6863;48.402;9.994;2023-07-28T00:07:06;15.40;99.90
13585;DHT22;6863;48.402;9.994;2023-07-28T00:09:32;15.30;99.90
13585;DHT22;6863;48.402;9.994;2023-07-28T00:11:59;15.30;99.90
13585;DHT22;6863;48.402;9.994;2023-07-28T00:14:25;15.40;99.90
13585;DHT22;6863;48.402;9.994;2023-07-28T00:16:56;15.40;99.90
13585;DHT22;6863;48.402;9.994;2023-07-28T00:19:22;15.40;99.90
13585;DHT22;6863;48.402;9.994;2023-07-28T00:21:49;15.40;99.90
13585;DHT22;6863;48.402;9.994;2023-07-28T00:24:15;15.30;99.90
13585;DHT22;6863;48.402;9.994;2023-07-28T00:26:41;15.20;99.90
13585;DHT22;6863;48.402;9.994;2023-07-28T00:29:06;15.10;99.90
13585;DHT22;6863;48.402;9.994;2023-07-28T00:31:33;15.10;99.90
13585;DHT22;6863;48.402;9.994;2023-07-28T00:33:59;15.10;99.90
13585;DHT22;6863;48.402;9.994;2023-07-28T00:36:24;15.10;99.90
13585;DHT22;6863;48.402;9.994;2023-07-28T00:38:50;15.10;99.90
13585;DHT22;6863;48.402;9.994;2023-07-28T00:41:16;15.00;99.90
13585;DHT22;6863;48.402;9.994;2023-07-28T00:43:41;15.00;99.90
13585;DHT22;6863;48.402;9.994;2023-07-28T00:46:08;15.00;99.90
13585;DHT22;6863;48.402;9.994;2023-07-28T00:48:34;15.00;99.90
13585;DHT22;6863;48.402;9.994;2023-07-28T00:50:59;14.90;99.90
13585;DHT22;6863;48.402;9.994;2023-07-28T00:53:25;14.80;99.90
13585;DHT22;6863;48.402;9.994;2023-07-28T00:55:51;14.80;99.90
13585;DHT22;6863;48.402;9.994;2023-07-28T00:58:18;14.70;99.90
13585;DHT22;6863;48.402;9.994;2023-07-28T01:00:53;14.70;99.90
13585;DHT22;6863;48.402;9.994;2023-07-28T01:03:20;14.70;99.90
13585;DHT22;6863;48.402;9.994;2023-07-28T01:06:26;14.60;99.90
13585;DHT22;6863;48.402;9.994;2023-07-28T01:09:02;14.60;99.90
13585;DHT22;6863;48.402;9.994;2023-07-28T01:11:29;14.60;99.90
13585;DHT22;6863;48.402;9.994;2023-07-28T01:13:54;14.50;99.90
13585;DHT22;6863;48.402;9.994;2023-07-28T01:16:20;14.60;99.90
13585;DHT22;6863;48.402;9.994;2023-07-28T01:18:46;14.60;99.90
13585;DHT22;6863;48.402;9.994;2023-07-28T01:21:20;14.70;99.90
13585;DHT22;6863;48.402;9.994;2023-07-28T01:24:01;14.70;99.90
13585;DHT22;6863;48.402;9.994;2023-07-28T01:26:36;14.80;99.90
13585;DHT22;6863;48.402;9.994;2023-07-28T01:29:03;14.90;99.90
13585;DHT22;6863;48.402;9.994;2023-07-28T01:31:29;14.90;99.90
13585;DHT22;6863;48.402;9.994;2023-07-28T01:33:55;14.90;99.90
13585;DHT22;6863;48.402;9.994;2023-07-28T01:36:20;14.90;99.90
13585;DHT22;6863;48.402;9.994;2023-07-28T01:38:46;14.90;99.90
13585;DHT22;6863;48.402;9.994;2023-07-28T01:41:11;14.80;99.90
13585;DHT22;6863;48.402;9.994;2023-07-28T01:43:37;14.80;99.90
13585;DHT22;6863;48.402;9.994;2023-07-28T01:46:03;14.90;99.90
13585;DHT22;6863;48.402;9.994;2023-07-28T01:48:29;14.80;99.90
13585;DHT22;6863;48.402;9.994;2023-07-28T01:50:54;14.70;99.90
13585;DHT22;6863;48.402;9.994;2023-07-28T01:53:21;14.60;99.90
13585;DHT22;6863;48.402;9.994;2023-07-28T01:55:46;14.60;99.90
13585;DHT22;6863;48.402;9.994;2023-07-28T01:58:12;14.60;99.90
13585;DHT22;6863;48.402;9.994;2023-07-28T02:00:37;14.60;99.90
13585;DHT22;6863;48.402;9.994;2023-07-28T02:03:03;14.70;99.90
13585;DHT22;6863;48.402;9.994;2023-07-28T02:05:29;14.80;99.90
13585;DHT22;6863;48.402;9.994;2023-07-28T02:07:55;14.70;99.90
13585;DHT22;6863;48.402;9.994;2023-07-28T02:10:28;14.80;99.90
13585;DHT22;6863;48.402;9.994;2023-07-28T02:12:53;14.90;99.90
13585;DHT22;6863;48.402;9.994;2023-07-28T02:15:19;14.90;99.90
13585;DHT22;6863;48.402;9.994;2023-07-28T02:17:45;14.90;99.90
13585;DHT22;6863;48.402;9.994;2023-07-28T02:20:10;15.00;99.90
13585;DHT22;6863;48.402;9.994;2023-07-28T02:22:41;14.90;99.90
13585;DHT22;6863;48.402;9.994;2023-07-28T02:25:08;14.90;99.90
13585;DHT22;6863;48.402;9.994;2023-07-28T02:27:33;14.90;99.90
13585;DHT22;6863;48.402;9.994;2023-07-28T02:29:59;14.90;99.90
13585;DHT22;6863;48.402;9.994;2023-07-28T02:32:26;14.90;99.90
13585;DHT22;6863;48.402;9.994;2023-07-28T02:34:51;14.90;99.90
13585;DHT22;6863;48.402;9.994;2023-07-28T02:37:17;14.90;99.90
13585;DHT22;6863;48.402;9.994;2023-07-28T02:39:43;14.90;99.90
13585;DHT22;6863;48.402;9.994;2023-07-28T02:42:09;14.80;99.90
13585;DHT22;6863;48.402;9.994;2023-07-28T02:44:34;14.80;99.90
13585;DHT22;6863;48.402;9.994;2023-07-28T02:47:00;14.70;99.90
13585;DHT22;6863;48.402;9.994;2023-07-28T02:49:25;14.70;99.90
13585;DHT22;6863;48.402;9.994;2023-07-28T02:51:51;14.70;99.90
13585;DHT22;6863;48.402;9.994;2023-07-28T02:54:16;14.70;99.90
13585;DHT22;6863;48.402;9.994;2023-07-28T02:56:42;14.70;99.90
13585;DHT22;6863;48.402;9.994;2023-07-28T02:59:08;14.70;99.90
13585;DHT22;6863;48.402;9.994;2023-07-28T03:01:33;14.60;99.90
13585;DHT22;6863;48.402;9.994;2023-07-28T03:04:00;14.50;99.90
13585;DHT22;6863;48.402;9.994;2023-07-28T03:06:26;14.40;99.90
13585;DHT22;6863;48.402;9.994;2023-07-28T03:08:52;14.40;99.90
13585;DHT22;6863;48.402;9.994;2023-07-28T03:11:17;14.30;99.90
13585;DHT22;6863;48.402;9.994;2023-07-28T03:13:43;14.40;99.90
13585;DHT22;6863;48.402;9.994;2023-07-28T03:16:08;14.30;99.90
13585;DHT22;6863;48.402;9.994;2023-07-28T03:18:35;14.40;99.90
13585;DHT22;6863;48.402;9.994;2023-07-28T03:21:01;14.30;99.90
13585;DHT22;6863;48.402;9.994;2023-07-28T03:23:26;14.30;99.90
13585;DHT22;6863;48.402;9.994;2023-07-28T03:25:52;14.40;99.90
13585;DHT22;6863;48.402;9.994;2023-07-28T03:28:17;14.40;99.90
13585;DHT22;6863;48.402;9.994;2023-07-28T03:30:43;14.50;99.90
13585;DHT22;6863;48.402;9.994;2023-07-28T03:33:09;14.40;99.90
13585;DHT22;6863;48.402;9.994;2023-07-28T03:35:34;14.40;99.90
13585;DHT22;6863;48.402;9.994;2023-07-28T03:38:00;14.30;99.90
13585;DHT22;6863;48.402;9.994;2023-07-28T03:40:25;14.20;99.90
13585;DHT22;6863;48.402;9.994;2023-07-28T03:42:51;14.30;99.90
13585;DHT22;6863;48.402;9.994;2023-07-28T03:45:17;14.30;99.90
13585;DHT22;6863;48.402;9.994;2023-07-28T03:47:43;14.30;99.90
13585;DHT22;6863;48.402;9.994;2023-07-28T03:50:08;14.40;99.90
13585;DHT22;6863;48.402;9.994;2023-07-28T03:52:34;14.50;99.90
13585;DHT22;6863;48.402;9.994;2023-07-28T03:54:59;14.50;99.90
13585;DHT22;6863;48.402;9.994;2023-07-28T03:57:25;14.60;99.90
13585;DHT22;6863;48.402;9.994;2023-07-28T03:59:51;14.50;99.90
13585;DHT22;6863;48.402;9.994;2023-07-28T04:02:16;14.50;99.90
13585;DHT22;6863;48.402;9.994;2023-07-28T04:04:42;14.50;99.90
13585;DHT22;6863;48.402;9.994;2023-07-28T04:07:07;14.60;99.90
13585;DHT22;6863;48.402;9.994;2023-07-28T04:09:33;14.60;99.90
13585;DHT22;6863;48.402;9.994;2023-07-28T04:11:58;14.60;99.90
13585;DHT22;6863;48.402;9.994;2023-07-28T04:14:24;14.60;99.90
13585;DHT22;6863;48.402;9.994;2023-07-28T04:16:50;14.60;99.90
13585;DHT22;6863;48.402;9.994;2023-07-28T04:19:15;14.70;99.90
13585;DHT22;6863;48.402;9.994;2023-07-28T04:21:41;14.80;99.90
13585;DHT22;6863;48.402;9.994;2023-07-28T04:24:07;14.80;99.90
13585;DHT22;6863;48.402;9.994;2023-07-28T04:26:33;14.80;99.90
13585;DHT22;6863;48.402;9.994;2023-07-28T04:28:59;14.80;99.90
13585;DHT22;6863;48.402;9.994;2023-07-28T04:31:24;14.80;99.90
13585;DHT22;6863;48.402;9.994;2023-07-28T04:33:50;14.80;99.90
13585;DHT22;6863;48.402;9.994;2023-07-28T04:36:15;14.80;99.90
13585;DHT22;6863;48.402;9.994;2023-07-28T04:38:41;14.90;99.90
13585;DHT22;6863;48.402;9.994;2023-07-28T04:41:06;14.90;99.90
13585;DHT22;6863;48.402;9.994;2023-07-28T04:43:32;14.90;99.90
13585;DHT22;6863;48.402;9.994;2023-07-28T04:45:57;15.00;99.90
13585;DHT22;6863;48.402;9.994;2023-07-28T04:48:23;15.00;99.90
13585;DHT22;6863;48.402;9.994;2023-07-28T04:50:49;15.00;99.90
13585;DHT22;6863;48.402;9.994;2023-07-28T04:53:15;15.00;99.90
13585;DHT22;6863;48.402;9.994;2023-07-28T04:55:40;15.00;99.90
13585;DHT22;6863;48.402;9.994;2023-07-28T04:58:06;15.00;99.90
13585;DHT22;6863;48.402;9.994;2023-07-28T05:00:34;15.00;99.90
13585;DHT22;6863;48.402;9.994;2023-07-28T05:03:00;15.10;99.90
13585;DHT22;6863;48.402;9.994;2023-07-28T05:05:25;15.10;99.90
13585;DHT22;6863;48.402;9.994;2023-07-28T05:07:51;15.20;99.90
13585;DHT22;6863;48.402;9.994;2023-07-28T05:10:17;15.30;99.90
13585;DHT22;6863;48.402;9.994;2023-07-28T05:12:42;15.30;99.90
13585;DHT22;6863;48.402;9.994;2023-07-28T05:15:08;15.30;99.90
13585;DHT22;6863;48.402;9.994;2023-07-28T05:17:36;15.40;99.90
13585;DHT22;6863;48.402;9.994;2023-07-28T05:20:02;15.40;99.90
13585;DHT22;6863;48.402;9.994;2023-07-28T05:22:28;15.40;99.90
13585;DHT22;6863;48.402;9.994;2023-07-28T05:24:54;15.50;99.90
13585;DHT22;6863;48.402;9.994;2023-07-28T05:27:19;15.60;99.90
13585;DHT22;6863;48.402;9.994;2023-07-28T05:29:45;15.70;99.90
13585;DHT22;6863;48.402;9.994;2023-07-28T05:32:10;15.70;99.90
13585;DHT22;6863;48.402;9.994;2023-07-28T05:34:36;15.80;99.90
13585;DHT22;6863;48.402;9.994;2023-07-28T05:37:01;15.90;99.90
13585;DHT22;6863;48.402;9.994;2023-07-28T05:39:27;16.00;99.90
13585;DHT22;6863;48.402;9.994;2023-07-28T05:41:53;16.30;99.90
13585;DHT22;6863;48.402;9.994;2023-07-28T05:44:19;16.60;99.90
13585;DHT22;6863;48.402;9.994;2023-07-28T05:46:45;16.80;99.90
13585;DHT22;6863;48.402;9.994;2023-07-28T05:49:11;17.00;99.90
13585;DHT22;6863;48.402;9.994;2023-07-28T05:51:36;17.20;99.90
13585;DHT22;6863;48.402;9.994;2023-07-28T05:54:02;17.30;99.90
13585;DHT22;6863;48.402;9.994;2023-07-28T05:56:28;17.20;99.90
13585;DHT22;6863;48.402;9.994;2023-07-28T05:58:54;17.20;99.90
13585;DHT22;6863;48.402;9.994;2023-07-28T06:01:19;17.20;99.90
13585;DHT22;6863;48.402;9.994;2023-07-28T06:03:48;17.30;99.90
13585;DHT22;6863;48.402;9.994;2023-07-28T06:06:14;17.40;99.90
13585;DHT22;6863;48.402;9.994;2023-07-28T06:08:39;17.40;99.90
13585;DHT22;6863;48.402;9.994;2023-07-28T06:11:06;17.60;99.90
13585;DHT22;6863;48.402;9.994;2023-07-28T06:13:32;17.90;99.90
13585;DHT22;6863;48.402;9.994;2023-07-28T06:15:58;18.30;99.90
13585;DHT22;6863;48.402;9.994;2023-07-28T06:18:24;18.50;99.90
13585;DHT22;6863;48.402;9.994;2023-07-28T06:21:12;18.70;99.90
13585;DHT22;6863;48.402;9.994;2023-07-28T06:23:38;19.00;99.90
13585;DHT22;6863;48.402;9.994;2023-07-28T06:26:04;19.30;99.90
13585;DHT22;6863;48.402;9.994;2023-07-28T06:28:29;19.40;99.90
13585;DHT22;6863;48.402;9.994;2023-07-28T06:30:55;19.50;99.90
13585;DHT22;6863;48.402;9.994;2023-07-28T06:33:21;19.40;99.90
13585;DHT22;6863;48.402;9.994;2023-07-28T06:35:47;19.30;99.90
13585;DHT22;6863;48.402;9.994;2023-07-28T06:38:12;19.00;99.90
13585;DHT22;6863;48.402;9.994;2023-07-28T06:40:38;19.00;99.90
13585;DHT22;6863;48.402;9.994;2023-07-28T06:43:04;19.00;99.90
13585;DHT22;6863;48.402;9.994;2023-07-28T06:45:29;19.10;99.90
13585;DHT22;6863;48.402;9.994;2023-07-28T06:47:55;19.30;99.90
13585;DHT22;6863;48.402;9.994;2023-07-28T06:50:21;19.30;99.90
13585;DHT22;6863;48.402;9.994;2023-07-28T06:52:46;19.30;99.90
13585;DHT22;6863;48.402;9.994;2023-07-28T06:55:14;19.40;99.90
13585;DHT22;6863;48.402;9.994;2023-07-28T06:57:40;19.60;99.90
13585;DHT22;6863;48.402;9.994;2023-07-28T07:00:06;19.90;99.90
13585;DHT22;6863;48.402;9.994;2023-07-28T07:02:34;19.90;99.90
13585;DHT22;6863;48.402;9.994;2023-07-28T07:05:00;19.70;99.90
13585;DHT22;6863;48.402;9.994;2023-07-28T07:07:26;19.80;99.90
13585;DHT22;6863;48.402;9.994;2023-07-28T07:09:52;20.00;99.90
13585;DHT22;6863;48.402;9.994;2023-07-28T07:12:17;19.80;99.90
13585;DHT22;6863;48.402;9.994;2023-07-28T07:14:44;19.70;99.90
13585;DHT22;6863;48.402;9.994;2023-07-28T07:17:10;19.70;99.90
13585;DHT22;6863;48.402;9.994;2023-07-28T07:19:35;19.70;99.90
13585;DHT22;6863;48.402;9.994;2023-07-28T07:22:01;19.50;99.90
13585;DHT22;6863;48.402;9.994;2023-07-28T07:24:27;19.60;99.90
13585;DHT22;6863;48.402;9.994;2023-07-28T07:26:52;19.60;99.90
13585;DHT22;6863;48.402;9.994;2023-07-28T07:29:18;19.70;99.90
13585;DHT22;6863;48.402;9.994;2023-07-28T07:31:44;19.80;99.90
13585;DHT22;6863;48.402;9.994;2023-07-28T07:34:09;20.10;99.90
13585;DHT22;6863;48.402;9.994;2023-07-28T07:36:35;20.50;99.90
13585;DHT22;6863;48.402;9.994;2023-07-28T07:39:00;20.70;99.90
13585;DHT22;6863;48.402;9.994;2023-07-28T07:41:26;20.80;99.90
13585;DHT22;6863;48.402;9.994;2023-07-28T07:43:53;20.90;99.90
13585;DHT22;6863;48.402;9.994;2023-07-28T07:46:19;20.90;99.90
13585;DHT22;6863;48.402;9.994;2023-07-28T07:48:45;20.80;99.90
13585;DHT22;6863;48.402;9.994;2023-07-28T07:51:11;20.60;99.90
13585;DHT22;6863;48.402;9.994;2023-07-28T07:53:37;20.30;99.90
13585;DHT22;6863;48.402;9.994;2023-07-28T07:56:04;20.20;99.90
13585;DHT22;6863;48.402;9.994;2023-07-28T07:58:29;20.10;99.90
13585;DHT22;6863;48.402;9.994;2023-07-28T08:00:55;20.20;99.90
13585;DHT22;6863;48.402;9.994;2023-07-28T08:03:21;20.30;99.90
13585;DHT22;6863;48.402;9.994;2023-07-28T08:05:47;20.60;99.90
13585;DHT22;6863;48.402;9.994;2023-07-28T08:08:13;20.90;99.90
13585;DHT22;6863;48.402;9.994;2023-07-28T08:10:42;21.20;99.90
13585;DHT22;6863;48.402;9.994;2023-07-28T08:13:08;21.20;99.90
13585;DHT22;6863;48.402;9.994;2023-07-28T08:15:34;21.40;99.90
13585;DHT22;6863;48.402;9.994;2023-07-28T08:17:59;21.40;99.90
13585;DHT22;6863;48.402;9.994;2023-07-28T08:20:25;21.50;99.90
13585;DHT22;6863;48.402;9.994;2023-07-28T08:22:50;21.60;99.90
13585;DHT22;6863;48.402;9.994;2023-07-28T08:25:16;21.70;99.90
13585;DHT22;6863;48.402;9.994;2023-07-28T08:27:42;21.90;99.90
13585;DHT22;6863;48.402;9.994;2023-07-28T08:30:08;22.00;99.90
13585;DHT22;6863;48.402;9.994;2023-07-28T08:32:34;22.30;99.90
13585;DHT22;6863;48.402;9.994;2023-07-28T08:35:00;22.70;99.90
13585;DHT22;6863;48.402;9.994;2023-07-28T08:37:25;23.00;99.90
13585;DHT22;6863;48.402;9.994;2023-07-28T08:39:51;23.10;99.30
13585;DHT22;6863;48.402;9.994;2023-07-28T08:42:16;22.90;99.10
13585;DHT22;6863;48.402;9.994;2023-07-28T08:44:42;22.70;99.30
13585;DHT22;6863;48.402;9.994;2023-07-28T08:47:08;22.60;99.60
13585;DHT22;6863;48.402;9.994;2023-07-28T08:49:34;22.70;99.30
13585;DHT22;6863;48.402;9.994;2023-07-28T08:52:02;22.60;99.40
13585;DHT22;6863;48.402;9.994;2023-07-28T08:54:29;22.90;98.70
13585;DHT22;6863;48.402;9.994;2023-07-28T08:56:56;22.80;98.90
13585;DHT22;6863;48.402;9.994;2023-07-28T09:01:52;23.00;98.60
13585;DHT22;6863;48.402;9.994;2023-07-28T09:04:17;23.20;98.10
13585;DHT22;6863;48.402;9.994;2023-07-28T09:06:50;23.00;98.10
13585;DHT22;6863;48.402;9.994;2023-07-28T09:09:20;23.40;97.70
13585;DHT22;6863;48.402;9.994;2023-07-28T09:11:56;23.60;97.20
13585;DHT22;6863;48.402;9.994;2023-07-28T09:14:22;24.20;96.60
13585;DHT22;6863;48.402;9.994;2023-07-28T09:16:50;24.30;95.80
13585;DHT22;6863;48.402;9.994;2023-07-28T09:19:16;24.20;95.30
13585;DHT22;6863;48.402;9.994;2023-07-28T09:21:44;24.20;95.80
13585;DHT22;6863;48.402;9.994;2023-07-28T09:24:12;25.00;94.80
13585;DHT22;6863;48.402;9.994;2023-07-28T09:26:42;24.90;94.40
13585;DHT22;6863;48.402;9.994;2023-07-28T09:29:16;24.80;94.30
13585;DHT22;6863;48.402;9.994;2023-07-28T09:31:46;24.90;94.20
13585;DHT22;6863;48.402;9.994;2023-07-28T09:34:13;25.00;93.80
13585;DHT22;6863;48.402;9.994;2023-07-28T09:36:48;24.70;93.90
13585;DHT22;6863;48.402;9.994;2023-07-28T09:39:14;24.30;94.60
13585;DHT22;6863;48.402;9.994;2023-07-28T09:41:40;24.40;94.50
13585;DHT22;6863;48.402;9.994;2023-07-28T09:44:06;24.60;94.10
13585;DHT22;6863;48.402;9.994;2023-07-28T09:46:35;24.70;93.60
13585;DHT22;6863;48.402;9.994;2023-07-28T09:49:10;24.40;94.00
13585;DHT22;6863;48.402;9.994;2023-07-28T09:51:40;24.20;94.50
13585;DHT22;6863;48.402;9.994;2023-07-28T09:54:19;24.80;94.00
13585;DHT22;6863;48.402;9.994;2023-07-28T09:56:50;25.50;92.50
13585;DHT22;6863;48.402;9.994;2023-07-28T09:59:17;26.10;92.10
13585;DHT22;6863;48.402;9.994;2023-07-28T10:01:47;26.30;91.30
13585;DHT22;6863;48.402;9.994;2023-07-28T10:04:13;26.70;90.60
13585;DHT22;6863;48.402;9.994;2023-07-28T10:06:41;26.50;90.20
13585;DHT22;6863;48.402;9.994;2023-07-28T10:09:08;26.10;90.60
13585;DHT22;6863;48.402;9.994;2023-07-28T10:11:33;26.10;90.30
13585;DHT22;6863;48.402;9.994;2023-07-28T10:13:59;26.30;90.30
13585;DHT22;6863;48.402;9.994;2023-07-28T10:16:37;26.30;89.80
13585;DHT22;6863;48.402;9.994;2023-07-28T10:19:04;26.60;89.40
13585;DHT22;6863;48.402;9.994;2023-07-28T10:21:29;26.50;88.80
13585;DHT22;6863;48.402;9.994;2023-07-28T10:23:58;26.20;88.80
13585;DHT22;6863;48.402;9.994;2023-07-28T10:26:40;26.20;89.20
13585;DHT22;6863;48.402;9.994;2023-07-28T10:29:13;26.10;89.50
13585;DHT22;6863;48.402;9.994;2023-07-28T10:31:53;26.00;87.90
13585;DHT22;6863;48.402;9.994;2023-07-28T10:34:19;26.10;87.80
13585;DHT22;6863;48.402;9.994;2023-07-28T10:36:49;26.10;86.60
13585;DHT22;6863;48.402;9.994;2023-07-28T10:39:21;26.90;84.40
13585;DHT22;6863;48.402;9.994;2023-07-28T10:42:04;27.30;83.10
13585;DHT22;6863;48.402;9.994;2023-07-28T10:44:31;27.00;82.70
13585;DHT22;6863;48.402;9.994;2023-07-28T10:46:57;26.80;84.40
13585;DHT22;6863;48.402;9.994;2023-07-28T10:49:24;26.60;84.30
13585;DHT22;6863;48.402;9.994;2023-07-28T10:51:51;26.40;85.90
13585;DHT22;6863;48.402;9.994;2023-07-28T10:54:16;26.70;84.50
13585;DHT22;6863;48.402;9.994;2023-07-28T10:56:48;26.50;83.90
13585;DHT22;6863;48.402;9.994;2023-07-28T11:01:57;26.90;82.80
13585;DHT22;6863;48.402;9.994;2023-07-28T11:04:23;26.80;82.80
13585;DHT22;6863;48.402;9.994;2023-07-28T11:06:49;26.60;83.00
13585;DHT22;6863;48.402;9.994;2023-07-28T11:09:17;26.50;83.60
13585;DHT22;6863;48.402;9.994;2023-07-28T11:11:44;26.60;83.60
13585;DHT22;6863;48.402;9.994;2023-07-28T11:14:10;26.50;83.70
13585;DHT22;6863;48.402;9.994;2023-07-28T11:16:38;27.10;82.40
13585;DHT22;6863;48.402;9.994;2023-07-28T11:19:08;27.70;81.40
13585;DHT22;6863;48.402;9.994;2023-07-28T11:21:38;29.40;76.50
13585;DHT22;6863;48.402;9.994;2023-07-28T11:24:30;29.20;74.70
13585;DHT22;6863;48.402;9.994;2023-07-28T11:27:16;30.00;73.70
13585;DHT22;6863;48.402;9.994;2023-07-28T11:29:41;29.90;72.10
13585;DHT22;6863;48.402;9.994;2023-07-28T11:32:08;29.20;73.80
13585;DHT22;6863;48.402;9.994;2023-07-28T11:34:38;29.60;73.10
13585;DHT22;6863;48.402;9.994;2023-07-28T11:37:06;28.80;74.50
13585;DHT22;6863;48.402;9.994;2023-07-28T11:39:34;27.80;76.70
13585;DHT22;6863;48.402;9.994;2023-07-28T11:42:01;27.20;78.30
13585;DHT22;6863;48.402;9.994;2023-07-28T11:44:27;26.90;79.90
13585;DHT22;6863;48.402;9.994;2023-07-28T11:46:53;26.20;81.90
13585;DHT22;6863;48.402;9.994;2023-07-28T11:49:21;25.70;83.50
13585;DHT22;6863;48.402;9.994;2023-07-28T11:51:52;25.20;85.00
13585;DHT22;6863;48.402;9.994;2023-07-28T11:54:20;24.80;87.40
13585;DHT22;6863;48.402;9.994;2023-07-28T11:56:48;24.70;88.70
13585;DHT22;6863;48.402;9.994;2023-07-28T11:59:15;24.50;89.30
13585;DHT22;6863;48.402;9.994;2023-07-28T12:01:55;24.30;90.10
13585;DHT22;6863;48.402;9.994;2023-07-28T12:04:28;24.10;90.70
13585;DHT22;6863;48.402;9.994;2023-07-28T12:07:12;24.00;92.10
13585;DHT22;6863;48.402;9.994;2023-07-28T12:09:49;23.60;94.00
13585;DHT22;6863;48.402;9.994;2023-07-28T12:12:23;23.10;95.70
13585;DHT22;6863;48.402;9.994;2023-07-28T12:14:49;23.30;96.60
13585;DHT22;6863;48.402;9.994;2023-07-28T12:17:18;23.60;95.80
13585;DHT22;6863;48.402;9.994;2023-07-28T12:20:04;24.50;96.30
13585;DHT22;6863;48.402;9.994;2023-07-28T12:22:37;25.20;95.70
13585;DHT22;6863;48.402;9.994;2023-07-28T12:25:03;25.50;93.40
13585;DHT22;6863;48.402;9.994;2023-07-28T12:27:30;25.60;93.60
13585;DHT22;6863;48.402;9.994;2023-07-28T12:29:55;25.80;93.30
13585;DHT22;6863;48.402;9.994;2023-07-28T12:32:21;26.10;91.90
13585;DHT22;6863;48.402;9.994;2023-07-28T12:34:48;26.40;92.10
13585;DHT22;6863;48.402;9.994;2023-07-28T12:37:14;26.70;91.80
13585;DHT22;6863;48.402;9.994;2023-07-28T12:39:39;26.70;90.80
13585;DHT22;6863;48.402;9.994;2023-07-28T12:42:06;26.50;90.70
13585;DHT22;6863;48.402;9.994;2023-07-28T12:44:32;26.20;91.00
13585;DHT22;6863;48.402;9.994;2023-07-28T12:46:58;26.00;91.70
13585;DHT22;6863;48.402;9.994;2023-07-28T12:49:24;25.90;92.60
13585;DHT22;6863;48.402;9.994;2023-07-28T12:51:49;25.90;92.80
13585;DHT22;6863;48.402;9.994;2023-07-28T12:54:15;25.90;92.90
13585;DHT22;6863;48.402;9.994;2023-07-28T12:56:40;26.10;92.20
13585;DHT22;6863;48.402;9.994;2023-07-28T12:59:06;26.20;91.70
13585;DHT22;6863;48.402;9.994;2023-07-28T13:01:33;26.30;91.10
13585;DHT22;6863;48.402;9.994;2023-07-28T13:03:59;26.60;90.20
13585;DHT22;6863;48.402;9.994;2023-07-28T13:06:25;26.60;88.40
13585;DHT22;6863;48.402;9.994;2023-07-28T13:08:50;26.70;88.00
13585;DHT22;6863;48.402;9.994;2023-07-28T13:11:16;27.20;86.80
13585;DHT22;6863;48.402;9.994;2023-07-28T13:13:41;27.60;85.20
13585;DHT22;6863;48.402;9.994;2023-07-28T13:16:07;28.00;82.90
13585;DHT22;6863;48.402;9.994;2023-07-28T13:18:33;28.30;82.10
13585;DHT22;6863;48.402;9.994;2023-07-28T13:20:59;28.40;82.50
13585;DHT22;6863;48.402;9.994;2023-07-28T13:23:24;28.60;80.50
13585;DHT22;6863;48.402;9.994;2023-07-28T13:25:51;28.60;78.10
13585;DHT22;6863;48.402;9.994;2023-07-28T13:28:17;28.60;78.30
13585;DHT22;6863;48.402;9.994;2023-07-28T13:30:42;28.40;78.00
13585;DHT22;6863;48.402;9.994;2023-07-28T13:33:08;28.40;77.60
13585;DHT22;6863;48.402;9.994;2023-07-28T13:35:34;28.70;76.70
13585;DHT22;6863;48.402;9.994;2023-07-28T13:37:59;28.90;75.40
13585;DHT22;6863;48.402;9.994;2023-07-28T13:40:25;28.70;75.80
13585;DHT22;6863;48.402;9.994;2023-07-28T13:42:50;28.40;77.00
13585;DHT22;6863;48.402;9.994;2023-07-28T13:45:16;28.20;77.70
13585;DHT22;6863;48.402;9.994;2023-07-28T13:47:41;28.40;75.70
13585;DHT22;6863;48.402;9.994;2023-07-28T13:50:07;28.10;76.50
13585;DHT22;6863;48.402;9.994;2023-07-28T13:52:33;27.90;77.10
13585;DHT22;6863;48.402;9.994;2023-07-28T13:54:58;27.70;76.50
13585;DHT22;6863;48.402;9.994;2023-07-28T13:57:24;27.60;76.70
13585;DHT22;6863;48.402;9.994;2023-07-28T13:59:49;27.70;76.30
13585;DHT22;6863;48.402;9.994;2023-07-28T14:02:17;27.60;77.00
13585;DHT22;6863;48.402;9.994;2023-07-28T14:04:43;27.60;77.30
13585;DHT22;6863;48.402;9.994;2023-07-28T14:07:09;27.30;78.70
13585;DHT22;6863;48.402;9.994;2023-07-28T14:09:35;27.30;77.90
13585;DHT22;6863;48.402;9.994;2023-07-28T14:12:01;27.10;79.40
13585;DHT22;6863;48.402;9.994;2023-07-28T14:14:28;27.30;78.40
13585;DHT22;6863;48.402;9.994;2023-07-28T14:16:53;27.40;79.20
13585;DHT22;6863;48.402;9.994;2023-07-28T14:19:19;27.40;79.50
13585;DHT22;6863;48.402;9.994;2023-07-28T14:21:44;27.50;79.30
13585;DHT22;6863;48.402;9.994;2023-07-28T14:24:10;27.20;79.80
13585;DHT22;6863;48.402;9.994;2023-07-28T14:26:36;27.20;80.00
13585;DHT22;6863;48.402;9.994;2023-07-28T14:29:02;27.00;80.40
13585;DHT22;6863;48.402;9.994;2023-07-28T14:31:27;26.80;81.30
13585;DHT22;6863;48.402;9.994;2023-07-28T14:33:53;26.60;82.30
13585;DHT22;6863;48.402;9.994;2023-07-28T14:36:19;26.50;82.60
13585;DHT22;6863;48.402;9.994;2023-07-28T14:38:44;26.40;83.40
13585;DHT22;6863;48.402;9.994;2023-07-28T14:41:10;26.10;84.30
13585;DHT22;6863;48.402;9.994;2023-07-28T14:43:35;26.00;84.90
13585;DHT22;6863;48.402;9.994;2023-07-28T14:46:01;25.70;85.50
13585;DHT22;6863;48.402;9.994;2023-07-28T14:48:27;25.60;85.80
13585;DHT22;6863;48.402;9.994;2023-07-28T14:50:52;25.60;86.10
13585;DHT22;6863;48.402;9.994;2023-07-28T14:53:48;25.60;85.70
13585;DHT22;6863;48.402;9.994;2023-07-28T14:56:14;25.70;86.30
13585;DHT22;6863;48.402;9.994;2023-07-28T14:58:40;25.90;85.90
13585;DHT22;6863;48.402;9.994;2023-07-28T15:01:07;25.90;85.70
13585;DHT22;6863;48.402;9.994;2023-07-28T15:03:33;25.90;85.50
13585;DHT22;6863;48.402;9.994;2023-07-28T15:06:00;26.00;85.40
13585;DHT22;6863;48.402;9.994;2023-07-28T15:08:25;25.70;87.00
13585;DHT22;6863;48.402;9.994;2023-07-28T15:10:51;25.60;86.00
13585;DHT22;6863;48.402;9.994;2023-07-28T15:13:17;25.60;86.40
13585;DHT22;6863;48.402;9.994;2023-07-28T15:15:43;25.60;86.40
13585;DHT22;6863;48.402;9.994;2023-07-28T15:18:08;25.40;86.80
13585;DHT22;6863;48.402;9.994;2023-07-28T15:20:35;25.30;87.60
13585;DHT22;6863;48.402;9.994;2023-07-28T15:23:01;25.10;88.70
13585;DHT22;6863;48.402;9.994;2023-07-28T15:25:27;24.80;89.30
13585;DHT22;6863;48.402;9.994;2023-07-28T15:27:53;24.70;90.00
13585;DHT22;6863;48.402;9.994;2023-07-28T15:30:19;24.50;90.50
13585;DHT22;6863;48.402;9.994;2023-07-28T15:32:44;24.30;90.70
13585;DHT22;6863;48.402;9.994;2023-07-28T15:35:10;24.30;90.70
13585;DHT22;6863;48.402;9.994;2023-07-28T15:37:36;24.30;91.40
13585;DHT22;6863;48.402;9.994;2023-07-28T15:40:03;24.20;92.70
13585;DHT22;6863;48.402;9.994;2023-07-28T15:42:29;24.20;93.20
13585;DHT22;6863;48.402;9.994;2023-07-28T15:44:54;24.20;93.10
13585;DHT22;6863;48.402;9.994;2023-07-28T15:47:20;24.20;94.00
13585;DHT22;6863;48.402;9.994;2023-07-28T15:49:45;24.20;93.60